sensor_id;sensor_type;location;lat;lon;timestamp;P1;durP1;ratioP1;P2;durP2;ratioP2
70505;SDS011;58032;49.820;6.274;2022-09-27T00:00:45;6.18;;;1.75;;
70505;SDS011;58032;49.820;6.274;2022-09-27T00:03:11;5.40;;;1.87;;
70505;SDS011;58032;49.820;6.274;2022-09-27T00:05:39;8.55;;;2.58;;
70505;SDS011;58032;49.820;6.274;2022-09-27T00:08:05;9.07;;;2.20;;
70505;SDS011;58032;49.820;6.274;2022-09-27T00:10:32;7.47;;;1.80;;
70505;SDS011;58032;49.820;6.274;2022-09-27T00:12:59;5.15;;;1.58;;
70505;SDS011;58032;49.820;6.274;2022-09-27T00:15:26;5.73;;;1.47;;
70505;SDS011;58032;49.820;6.274;2022-09-27T00:17:53;7.10;;;1.88;;
70505;SDS011;58032;49.820;6.274;2022-09-27T00:20:20;4.18;;;1.45;;
70505;SDS011;58032;49.820;6.274;2022-09-27T00:22:47;8.20;;;1.55;;
70505;SDS011;58032;49.820;6.274;2022-09-27T00:25:14;9.55;;;1.50;;
70505;SDS011;58032;49.820;6.274;2022-09-27T00:27:41;5.13;;;1.40;;
70505;SDS011;58032;49.820;6.274;2022-09-27T00:30:09;7.57;;;1.33;;
70505;SDS011;58032;49.820;6.274;2022-09-27T00:32:36;4.72;;;1.02;;
70505;SDS011;58032;49.820;6.274;2022-09-27T00:35:03;3.90;;;0.90;;
70505;SDS011;58032;49.820;6.274;2022-09-27T00:37:30;2.85;;;0.60;;
70505;SDS011;58032;49.820;6.274;2022-09-27T00:39:57;3.93;;;0.70;;
70505;SDS011;58032;49.820;6.274;2022-09-27T00:42:24;3.50;;;0.50;;
70505;SDS011;58032;49.820;6.274;2022-09-27T00:44:58;1.65;;;0.32;;
70505;SDS011;58032;49.820;6.274;2022-09-27T00:47:31;1.30;;;0.20;;
70505;SDS011;58032;49.820;6.274;2022-09-27T00:53:10;2.73;;;0.37;;
70505;SDS011;58032;49.820;6.274;2022-09-27T00:55:39;3.03;;;0.38;;
70505;SDS011;58032;49.820;6.274;2022-09-27T00:58:07;1.55;;;0.20;;
70505;SDS011;58032;49.820;6.274;2022-09-27T01:00:35;3.13;;;0.20;;
70505;SDS011;58032;49.820;6.274;2022-09-27T01:03:03;1.50;;;0.30;;
70505;SDS011;58032;49.820;6.274;2022-09-27T01:05:31;4.60;;;0.30;;
70505;SDS011;58032;49.820;6.274;2022-09-27T01:07:58;1.60;;;0.20;;
70505;SDS011;58032;49.820;6.274;2022-09-27T01:10:31;1.60;;;0.20;;
70505;SDS011;58032;49.820;6.274;2022-09-27T01:13:13;1.10;;;0.20;;
70505;SDS011;58032;49.820;6.274;2022-09-27T01:21:43;1.52;;;0.20;;
70505;SDS011;58032;49.820;6.274;2022-09-27T01:31:33;1.07;;;0.20;;
70505;SDS011;58032;49.820;6.274;2022-09-27T01:39:08;2.03;;;0.20;;
70505;SDS011;58032;49.820;6.274;2022-09-27T01:42:00;1.10;;;0.15;;
70505;SDS011;58032;49.820;6.274;2022-09-27T01:47:19;1.20;;;0.17;;
70505;SDS011;58032;49.820;6.274;2022-09-27T01:50:10;1.20;;;0.20;;
70505;SDS011;58032;49.820;6.274;2022-09-27T01:52:42;1.08;;;0.20;;
70505;SDS011;58032;49.820;6.274;2022-09-27T01:55:13;1.20;;;0.20;;
70505;SDS011;58032;49.820;6.274;2022-09-27T01:58:14;1.03;;;0.20;;
70505;SDS011;58032;49.820;6.274;2022-09-27T02:00:47;2.10;;;0.20;;
70505;SDS011;58032;49.820;6.274;2022-09-27T02:03:19;1.48;;;0.40;;
70505;SDS011;58032;49.820;6.274;2022-09-27T02:06:24;3.22;;;0.20;;
70505;SDS011;58032;49.820;6.274;2022-09-27T02:11:51;1.47;;;0.20;;
70505;SDS011;58032;49.820;6.274;2022-09-27T02:24:50;1.60;;;0.20;;
70505;SDS011;58032;49.820;6.274;2022-09-27T02:27:29;1.60;;;0.22;;
70505;SDS011;58032;49.820;6.274;2022-09-27T02:30:03;1.83;;;0.30;;
70505;SDS011;58032;49.820;6.274;2022-09-27T02:32:32;1.90;;;0.20;;
70505;SDS011;58032;49.820;6.274;2022-09-27T02:35:01;2.30;;;0.30;;
70505;SDS011;58032;49.820;6.274;2022-09-27T02:37:29;1.73;;;0.30;;
70505;SDS011;58032;49.820;6.274;2022-09-27T02:39:56;3.15;;;0.30;;
70505;SDS011;58032;49.820;6.274;2022-09-27T02:42:23;2.10;;;0.40;;
70505;SDS011;58032;49.820;6.274;2022-09-27T02:44:51;2.00;;;0.38;;
70505;SDS011;58032;49.820;6.274;2022-09-27T02:47:28;1.90;;;0.50;;
70505;SDS011;58032;49.820;6.274;2022-09-27T02:50:04;1.73;;;0.33;;
70505;SDS011;58032;49.820;6.274;2022-09-27T02:52:54;3.15;;;0.52;;
70505;SDS011;58032;49.820;6.274;2022-09-27T03:04:04;3.87;;;0.40;;
70505;SDS011;58032;49.820;6.274;2022-09-27T03:06:32;3.28;;;0.52;;
70505;SDS011;58032;49.820;6.274;2022-09-27T03:09:00;2.35;;;0.60;;
70505;SDS011;58032;49.820;6.274;2022-09-27T03:11:27;2.95;;;0.70;;
70505;SDS011;58032;49.820;6.274;2022-09-27T03:13:54;2.40;;;0.75;;
70505;SDS011;58032;49.820;6.274;2022-09-27T03:16:35;3.33;;;0.73;;
70505;SDS011;58032;49.820;6.274;2022-09-27T03:19:32;2.50;;;0.60;;
70505;SDS011;58032;49.820;6.274;2022-09-27T03:22:17;4.30;;;0.60;;
70505;SDS011;58032;49.820;6.274;2022-09-27T03:24:45;2.60;;;0.65;;
70505;SDS011;58032;49.820;6.274;2022-09-27T03:27:12;3.72;;;0.60;;
70505;SDS011;58032;49.820;6.274;2022-09-27T03:29:40;3.00;;;0.40;;
70505;SDS011;58032;49.820;6.274;2022-09-27T03:32:08;3.22;;;0.60;;
70505;SDS011;58032;49.820;6.274;2022-09-27T03:34:54;2.70;;;0.60;;
70505;SDS011;58032;49.820;6.274;2022-09-27T03:37:21;1.88;;;0.50;;
70505;SDS011;58032;49.820;6.274;2022-09-27T03:39:48;3.15;;;0.52;;
70505;SDS011;58032;49.820;6.274;2022-09-27T03:42:15;2.70;;;0.30;;
70505;SDS011;58032;49.820;6.274;2022-09-27T03:44:46;3.63;;;0.40;;
70505;SDS011;58032;49.820;6.274;2022-09-27T03:47:13;2.28;;;0.50;;
70505;SDS011;58032;49.820;6.274;2022-09-27T03:49:40;1.67;;;0.30;;
70505;SDS011;58032;49.820;6.274;2022-09-27T03:52:07;3.70;;;0.40;;
70505;SDS011;58032;49.820;6.274;2022-09-27T03:54:35;2.83;;;0.40;;
70505;SDS011;58032;49.820;6.274;2022-09-27T03:57:02;1.55;;;0.30;;
70505;SDS011;58032;49.820;6.274;2022-09-27T03:59:29;3.00;;;0.43;;
70505;SDS011;58032;49.820;6.274;2022-09-27T04:02:15;1.85;;;0.30;;
70505;SDS011;58032;49.820;6.274;2022-09-27T04:05:11;1.52;;;0.25;;
70505;SDS011;58032;49.820;6.274;2022-09-27T04:07:38;1.20;;;0.20;;
70505;SDS011;58032;49.820;6.274;2022-09-27T04:10:05;1.02;;;0.20;;
70505;SDS011;58032;49.820;6.274;2022-09-27T04:12:33;1.40;;;0.20;;
70505;SDS011;58032;49.820;6.274;2022-09-27T04:15:00;1.10;;;0.13;;
70505;SDS011;58032;49.820;6.274;2022-09-27T04:17:46;1.45;;;0.20;;
70505;SDS011;58032;49.820;6.274;2022-09-27T04:20:31;1.20;;;0.20;;
70505;SDS011;58032;49.820;6.274;2022-09-27T04:23:02;1.13;;;0.20;;
70505;SDS011;58032;49.820;6.274;2022-09-27T04:25:30;1.23;;;0.20;;
70505;SDS011;58032;49.820;6.274;2022-09-27T04:28:07;0.90;;;0.10;;
70505;SDS011;58032;49.820;6.274;2022-09-27T04:30:34;2.45;;;0.20;;
70505;SDS011;58032;49.820;6.274;2022-09-27T04:33:06;1.43;;;0.40;;
70505;SDS011;58032;49.820;6.274;2022-09-27T04:35:52;2.35;;;0.30;;
70505;SDS011;58032;49.820;6.274;2022-09-27T04:38:45;1.42;;;0.30;;
70505;SDS011;58032;49.820;6.274;2022-09-27T04:41:11;2.03;;;0.45;;
70505;SDS011;58032;49.820;6.274;2022-09-27T04:43:39;3.65;;;0.50;;
70505;SDS011;58032;49.820;6.274;2022-09-27T04:46:06;3.37;;;0.43;;
70505;SDS011;58032;49.820;6.274;2022-09-27T04:48:33;2.78;;;0.45;;
70505;SDS011;58032;49.820;6.274;2022-09-27T04:51:01;3.08;;;0.40;;
70505;SDS011;58032;49.820;6.274;2022-09-27T04:53:28;1.80;;;0.40;;
70505;SDS011;58032;49.820;6.274;2022-09-27T04:55:59;4.82;;;0.60;;
70505;SDS011;58032;49.820;6.274;2022-09-27T04:58:28;2.00;;;0.40;;
70505;SDS011;58032;49.820;6.274;2022-09-27T05:00:55;1.77;;;0.38;;
70505;SDS011;58032;49.820;6.274;2022-09-27T05:03:51;2.03;;;0.47;;
70505;SDS011;58032;49.820;6.274;2022-09-27T05:06:18;2.15;;;0.60;;
70505;SDS011;58032;49.820;6.274;2022-09-27T05:08:45;2.92;;;0.75;;
70505;SDS011;58032;49.820;6.274;2022-09-27T05:11:23;2.17;;;0.50;;
70505;SDS011;58032;49.820;6.274;2022-09-27T05:14:08;2.15;;;0.50;;
70505;SDS011;58032;49.820;6.274;2022-09-27T05:16:46;4.00;;;0.70;;
70505;SDS011;58032;49.820;6.274;2022-09-27T05:19:33;1.92;;;0.40;;
70505;SDS011;58032;49.820;6.274;2022-09-27T05:22:10;2.95;;;0.70;;
70505;SDS011;58032;49.820;6.274;2022-09-27T05:24:38;2.83;;;0.47;;
70505;SDS011;58032;49.820;6.274;2022-09-27T05:27:06;2.03;;;0.40;;
70505;SDS011;58032;49.820;6.274;2022-09-27T05:29:33;2.05;;;0.40;;
70505;SDS011;58032;49.820;6.274;2022-09-27T05:32:14;1.70;;;0.30;;
70505;SDS011;58032;49.820;6.274;2022-09-27T05:34:43;1.60;;;0.30;;
70505;SDS011;58032;49.820;6.274;2022-09-27T05:37:10;1.77;;;0.30;;
70505;SDS011;58032;49.820;6.274;2022-09-27T05:39:39;1.65;;;0.25;;
70505;SDS011;58032;49.820;6.274;2022-09-27T05:42:06;1.67;;;0.30;;
70505;SDS011;58032;49.820;6.274;2022-09-27T05:44:36;2.63;;;0.20;;
70505;SDS011;58032;49.820;6.274;2022-09-27T05:47:05;1.20;;;0.20;;
70505;SDS011;58032;49.820;6.274;2022-09-27T05:49:32;2.33;;;0.20;;
70505;SDS011;58032;49.820;6.274;2022-09-27T05:52:02;2.72;;;0.20;;
70505;SDS011;58032;49.820;6.274;2022-09-27T05:54:29;1.75;;;0.32;;
70505;SDS011;58032;49.820;6.274;2022-09-27T05:56:58;1.45;;;0.20;;
70505;SDS011;58032;49.820;6.274;2022-09-27T05:59:45;1.98;;;0.20;;
70505;SDS011;58032;49.820;6.274;2022-09-27T06:02:16;1.87;;;0.20;;
70505;SDS011;58032;49.820;6.274;2022-09-27T06:05:02;1.30;;;0.20;;
70505;SDS011;58032;49.820;6.274;2022-09-27T06:07:49;1.08;;;0.20;;
70505;SDS011;58032;49.820;6.274;2022-09-27T06:10:25;1.23;;;0.10;;
70505;SDS011;58032;49.820;6.274;2022-09-27T06:12:52;1.92;;;0.20;;
70505;SDS011;58032;49.820;6.274;2022-09-27T06:15:41;1.20;;;0.10;;
70505;SDS011;58032;49.820;6.274;2022-09-27T06:18:09;2.55;;;0.20;;
70505;SDS011;58032;49.820;6.274;2022-09-27T06:20:38;1.15;;;0.20;;
70505;SDS011;58032;49.820;6.274;2022-09-27T06:23:07;1.20;;;0.10;;
70505;SDS011;58032;49.820;6.274;2022-09-27T06:25:36;1.23;;;0.17;;
70505;SDS011;58032;49.820;6.274;2022-09-27T06:28:11;1.60;;;0.10;;
70505;SDS011;58032;49.820;6.274;2022-09-27T06:30:39;2.30;;;0.20;;
70505;SDS011;58032;49.820;6.274;2022-09-27T06:33:16;2.28;;;0.20;;
70505;SDS011;58032;49.820;6.274;2022-09-27T06:35:48;1.00;;;0.15;;
70505;SDS011;58032;49.820;6.274;2022-09-27T06:38:17;1.63;;;0.10;;
70505;SDS011;58032;49.820;6.274;2022-09-27T06:40:51;1.10;;;0.13;;
70505;SDS011;58032;49.820;6.274;2022-09-27T06:43:29;1.00;;;0.20;;
70505;SDS011;58032;49.820;6.274;2022-09-27T06:46:05;2.30;;;0.20;;
70505;SDS011;58032;49.820;6.274;2022-09-27T06:48:48;1.90;;;0.30;;
70505;SDS011;58032;49.820;6.274;2022-09-27T06:51:17;3.88;;;0.38;;
70505;SDS011;58032;49.820;6.274;2022-09-27T06:53:44;2.77;;;0.40;;
70505;SDS011;58032;49.820;6.274;2022-09-27T06:56:12;1.95;;;0.40;;
70505;SDS011;58032;49.820;6.274;2022-09-27T06:58:51;1.55;;;0.35;;
70505;SDS011;58032;49.820;6.274;2022-09-27T07:01:42;2.30;;;0.40;;
70505;SDS011;58032;49.820;6.274;2022-09-27T07:04:10;2.20;;;0.57;;
70505;SDS011;58032;49.820;6.274;2022-09-27T07:06:49;4.60;;;0.73;;
70505;SDS011;58032;49.820;6.274;2022-09-27T07:09:20;3.17;;;1.00;;
70505;SDS011;58032;49.820;6.274;2022-09-27T07:11:47;4.53;;;1.48;;
70505;SDS011;58032;49.820;6.274;2022-09-27T07:14:14;4.82;;;1.10;;
70505;SDS011;58032;49.820;6.274;2022-09-27T07:16:43;4.50;;;1.00;;
70505;SDS011;58032;49.820;6.274;2022-09-27T07:19:10;3.77;;;1.27;;
70505;SDS011;58032;49.820;6.274;2022-09-27T07:21:40;4.78;;;1.27;;
70505;SDS011;58032;49.820;6.274;2022-09-27T07:24:07;3.97;;;1.20;;
70505;SDS011;58032;49.820;6.274;2022-09-27T07:26:34;4.60;;;1.48;;
70505;SDS011;58032;49.820;6.274;2022-09-27T07:29:03;5.20;;;1.60;;
70505;SDS011;58032;49.820;6.274;2022-09-27T07:31:30;7.00;;;1.03;;
70505;SDS011;58032;49.820;6.274;2022-09-27T07:33:57;3.42;;;1.20;;
70505;SDS011;58032;49.820;6.274;2022-09-27T07:36:24;6.43;;;1.30;;
70505;SDS011;58032;49.820;6.274;2022-09-27T07:38:51;4.68;;;1.23;;
70505;SDS011;58032;49.820;6.274;2022-09-27T07:41:18;3.67;;;1.50;;
70505;SDS011;58032;49.820;6.274;2022-09-27T07:43:45;3.60;;;1.60;;
70505;SDS011;58032;49.820;6.274;2022-09-27T07:46:13;4.35;;;1.70;;
70505;SDS011;58032;49.820;6.274;2022-09-27T07:49:15;5.07;;;1.65;;
70505;SDS011;58032;49.820;6.274;2022-09-27T07:52:14;4.63;;;1.77;;
70505;SDS011;58032;49.820;6.274;2022-09-27T07:55:11;4.90;;;1.80;;
70505;SDS011;58032;49.820;6.274;2022-09-27T07:57:51;4.57;;;1.67;;
70505;SDS011;58032;49.820;6.274;2022-09-27T08:00:20;5.95;;;1.92;;
70505;SDS011;58032;49.820;6.274;2022-09-27T08:02:47;5.07;;;1.75;;
70505;SDS011;58032;49.820;6.274;2022-09-27T08:05:14;6.47;;;2.33;;
70505;SDS011;58032;49.820;6.274;2022-09-27T08:07:41;6.57;;;2.03;;
70505;SDS011;58032;49.820;6.274;2022-09-27T08:10:08;9.23;;;2.50;;
70505;SDS011;58032;49.820;6.274;2022-09-27T08:12:36;5.68;;;2.10;;
70505;SDS011;58032;49.820;6.274;2022-09-27T08:15:03;6.03;;;2.28;;
70505;SDS011;58032;49.820;6.274;2022-09-27T08:17:31;8.10;;;2.38;;
70505;SDS011;58032;49.820;6.274;2022-09-27T08:20:07;6.07;;;2.22;;
70505;SDS011;58032;49.820;6.274;2022-09-27T08:22:45;7.43;;;2.40;;
70505;SDS011;58032;49.820;6.274;2022-09-27T08:25:27;6.80;;;2.58;;
70505;SDS011;58032;49.820;6.274;2022-09-27T08:28:22;7.72;;;2.30;;
70505;SDS011;58032;49.820;6.274;2022-09-27T08:31:14;5.55;;;2.67;;
70505;SDS011;58032;49.820;6.274;2022-09-27T08:33:41;5.45;;;1.80;;
70505;SDS011;58032;49.820;6.274;2022-09-27T08:36:09;5.13;;;2.17;;
70505;SDS011;58032;49.820;6.274;2022-09-27T08:38:36;6.97;;;2.30;;
70505;SDS011;58032;49.820;6.274;2022-09-27T08:41:50;6.68;;;2.80;;
70505;SDS011;58032;49.820;6.274;2022-09-27T08:48:58;4.90;;;1.67;;
70505;SDS011;58032;49.820;6.274;2022-09-27T08:51:29;6.28;;;2.15;;
70505;SDS011;58032;49.820;6.274;2022-09-27T08:53:57;5.22;;;2.05;;
70505;SDS011;58032;49.820;6.274;2022-09-27T08:56:26;7.20;;;2.00;;
70505;SDS011;58032;49.820;6.274;2022-09-27T08:59:05;6.22;;;1.85;;
70505;SDS011;58032;49.820;6.274;2022-09-27T09:01:36;4.67;;;1.80;;
70505;SDS011;58032;49.820;6.274;2022-09-27T09:04:08;4.35;;;1.60;;
70505;SDS011;58032;49.820;6.274;2022-09-27T09:06:44;6.63;;;1.90;;
70505;SDS011;58032;49.820;6.274;2022-09-27T09:11:58;5.85;;;2.40;;
70505;SDS011;58032;49.820;6.274;2022-09-27T09:15:03;5.87;;;2.17;;
70505;SDS011;58032;49.820;6.274;2022-09-27T09:20:52;6.55;;;1.50;;
70505;SDS011;58032;49.820;6.274;2022-09-27T09:23:26;4.25;;;1.80;;
70505;SDS011;58032;49.820;6.274;2022-09-27T09:25:59;3.58;;;1.20;;
70505;SDS011;58032;49.820;6.274;2022-09-27T09:31:05;4.78;;;1.23;;
70505;SDS011;58032;49.820;6.274;2022-09-27T09:33:35;6.45;;;1.50;;
70505;SDS011;58032;49.820;6.274;2022-09-27T09:38:57;3.72;;;1.15;;
70505;SDS011;58032;49.820;6.274;2022-09-27T09:41:35;3.57;;;1.30;;
70505;SDS011;58032;49.820;6.274;2022-09-27T09:44:05;4.95;;;1.00;;
70505;SDS011;58032;49.820;6.274;2022-09-27T09:46:38;3.10;;;1.02;;
70505;SDS011;58032;49.820;6.274;2022-09-27T09:49:15;3.33;;;1.17;;
70505;SDS011;58032;49.820;6.274;2022-09-27T09:51:45;3.20;;;1.00;;
70505;SDS011;58032;49.820;6.274;2022-09-27T09:54:19;4.10;;;1.00;;
70505;SDS011;58032;49.820;6.274;2022-09-27T09:56:49;4.97;;;1.40;;
70505;SDS011;58032;49.820;6.274;2022-09-27T10:02:48;5.93;;;1.25;;
70505;SDS011;58032;49.820;6.274;2022-09-27T10:04:49;3.60;;;1.30;;
70505;SDS011;58032;49.820;6.274;2022-09-27T10:07:17;4.23;;;1.17;;
70505;SDS011;58032;49.820;6.274;2022-09-27T10:09:46;3.47;;;0.95;;
70505;SDS011;58032;49.820;6.274;2022-09-27T10:12:32;3.47;;;0.90;;
70505;SDS011;58032;49.820;6.274;2022-09-27T10:15:00;4.07;;;1.10;;
70505;SDS011;58032;49.820;6.274;2022-09-27T10:17:36;3.50;;;1.17;;
70505;SDS011;58032;49.820;6.274;2022-09-27T10:20:06;4.30;;;1.07;;
70505;SDS011;58032;49.820;6.274;2022-09-27T10:22:35;5.22;;;1.50;;
70505;SDS011;58032;49.820;6.274;2022-09-27T10:25:12;4.07;;;1.40;;
70505;SDS011;58032;49.820;6.274;2022-09-27T10:27:51;4.30;;;1.30;;
70505;SDS011;58032;49.820;6.274;2022-09-27T10:30:27;4.75;;;1.40;;
70505;SDS011;58032;49.820;6.274;2022-09-27T10:33:03;4.80;;;1.40;;
70505;SDS011;58032;49.820;6.274;2022-09-27T10:35:43;4.57;;;1.38;;
70505;SDS011;58032;49.820;6.274;2022-09-27T10:38:22;4.13;;;1.52;;
70505;SDS011;58032;49.820;6.274;2022-09-27T10:40:55;3.30;;;1.45;;
70505;SDS011;58032;49.820;6.274;2022-09-27T10:43:26;8.88;;;3.35;;
70505;SDS011;58032;49.820;6.274;2022-09-27T10:46:09;8.87;;;3.40;;
70505;SDS011;58032;49.820;6.274;2022-09-27T10:48:39;7.45;;;2.40;;
70505;SDS011;58032;49.820;6.274;2022-09-27T10:51:21;6.28;;;2.83;;
70505;SDS011;58032;49.820;6.274;2022-09-27T10:53:49;4.60;;;1.60;;
70505;SDS011;58032;49.820;6.274;2022-09-27T10:56:43;4.75;;;1.80;;
70505;SDS011;58032;49.820;6.274;2022-09-27T10:59:13;5.37;;;1.70;;
70505;SDS011;58032;49.820;6.274;2022-09-27T11:01:44;3.95;;;1.50;;
70505;SDS011;58032;49.820;6.274;2022-09-27T11:04:36;5.93;;;1.70;;
70505;SDS011;58032;49.820;6.274;2022-09-27T11:09:43;3.42;;;1.20;;
70505;SDS011;58032;49.820;6.274;2022-09-27T11:12:13;4.03;;;1.30;;
70505;SDS011;58032;49.820;6.274;2022-09-27T11:14:44;5.60;;;1.58;;
70505;SDS011;58032;49.820;6.274;2022-09-27T11:17:49;3.85;;;1.00;;
70505;SDS011;58032;49.820;6.274;2022-09-27T11:28:18;7.65;;;1.05;;
70505;SDS011;58032;49.820;6.274;2022-09-27T11:33:44;2.83;;;1.02;;
70505;SDS011;58032;49.820;6.274;2022-09-27T11:38:55;5.37;;;0.83;;
70505;SDS011;58032;49.820;6.274;2022-09-27T11:41:35;4.55;;;0.90;;
70505;SDS011;58032;49.820;6.274;2022-09-27T11:46:32;3.10;;;0.43;;
70505;SDS011;58032;49.820;6.274;2022-09-27T12:02:55;2.80;;;0.40;;
70505;SDS011;58032;49.820;6.274;2022-09-27T12:04:56;3.23;;;0.50;;
70505;SDS011;58032;49.820;6.274;2022-09-27T12:10:00;2.70;;;0.40;;
70505;SDS011;58032;49.820;6.274;2022-09-27T12:12:31;2.08;;;0.50;;
70505;SDS011;58032;49.820;6.274;2022-09-27T12:14:59;3.38;;;0.60;;
70505;SDS011;58032;49.820;6.274;2022-09-27T12:17:35;3.40;;;0.40;;
70505;SDS011;58032;49.820;6.274;2022-09-27T12:20:26;2.72;;;0.50;;
70505;SDS011;58032;49.820;6.274;2022-09-27T12:23:02;2.90;;;0.47;;
70505;SDS011;58032;49.820;6.274;2022-09-27T12:26:03;3.63;;;0.50;;
70505;SDS011;58032;49.820;6.274;2022-09-27T12:28:43;2.10;;;0.40;;
70505;SDS011;58032;49.820;6.274;2022-09-27T12:36:32;2.25;;;0.60;;
70505;SDS011;58032;49.820;6.274;2022-09-27T12:42:16;2.72;;;0.50;;
70505;SDS011;58032;49.820;6.274;2022-09-27T12:44:45;2.57;;;0.60;;
70505;SDS011;58032;49.820;6.274;2022-09-27T12:47:18;3.45;;;0.68;;
70505;SDS011;58032;49.820;6.274;2022-09-27T12:52:17;4.25;;;0.60;;
70505;SDS011;58032;49.820;6.274;2022-09-27T13:01:10;3.15;;;0.60;;
70505;SDS011;58032;49.820;6.274;2022-09-27T13:06:20;3.25;;;0.45;;
70505;SDS011;58032;49.820;6.274;2022-09-27T13:09:17;2.40;;;0.55;;
70505;SDS011;58032;49.820;6.274;2022-09-27T13:14:22;3.05;;;0.50;;
70505;SDS011;58032;49.820;6.274;2022-09-27T13:16:50;2.20;;;0.52;;
70505;SDS011;58032;49.820;6.274;2022-09-27T13:19:53;1.80;;;0.50;;
70505;SDS011;58032;49.820;6.274;2022-09-27T13:25:13;1.97;;;0.47;;
70505;SDS011;58032;49.820;6.274;2022-09-27T13:28:00;1.98;;;0.50;;
70505;SDS011;58032;49.820;6.274;2022-09-27T13:38:35;1.80;;;0.50;;
70505;SDS011;58032;49.820;6.274;2022-09-27T13:41:15;2.75;;;0.50;;
70505;SDS011;58032;49.820;6.274;2022-09-27T13:47:03;1.77;;;0.30;;
70505;SDS011;58032;49.820;6.274;2022-09-27T13:49:39;1.95;;;0.50;;
70505;SDS011;58032;49.820;6.274;2022-09-27T13:54:52;2.53;;;0.45;;
70505;SDS011;58032;49.820;6.274;2022-09-27T13:57:37;4.10;;;0.70;;
70505;SDS011;58032;49.820;6.274;2022-09-27T14:00:05;1.70;;;0.45;;
70505;SDS011;58032;49.820;6.274;2022-09-27T14:03:13;3.47;;;0.50;;
70505;SDS011;58032;49.820;6.274;2022-09-27T14:05:51;2.70;;;0.50;;
70505;SDS011;58032;49.820;6.274;2022-09-27T14:08:24;3.33;;;0.45;;
70505;SDS011;58032;49.820;6.274;2022-09-27T14:10:52;2.55;;;0.60;;
70505;SDS011;58032;49.820;6.274;2022-09-27T14:13:21;1.95;;;0.47;;
70505;SDS011;58032;49.820;6.274;2022-09-27T14:15:57;3.30;;;0.50;;
70505;SDS011;58032;49.820;6.274;2022-09-27T14:18:26;3.20;;;0.80;;
70505;SDS011;58032;49.820;6.274;2022-09-27T14:20:53;1.92;;;0.70;;
70505;SDS011;58032;49.820;6.274;2022-09-27T14:23:49;4.55;;;0.80;;
70505;SDS011;58032;49.820;6.274;2022-09-27T14:26:26;2.20;;;0.80;;
70505;SDS011;58032;49.820;6.274;2022-09-27T14:28:54;3.53;;;1.00;;
70505;SDS011;58032;49.820;6.274;2022-09-27T14:31:38;3.53;;;0.83;;
70505;SDS011;58032;49.820;6.274;2022-09-27T14:34:16;2.97;;;0.65;;
70505;SDS011;58032;49.820;6.274;2022-09-27T14:36:46;3.83;;;0.70;;
70505;SDS011;58032;49.820;6.274;2022-09-27T14:39:54;2.95;;;0.88;;
70505;SDS011;58032;49.820;6.274;2022-09-27T14:42:35;2.50;;;0.80;;
70505;SDS011;58032;49.820;6.274;2022-09-27T14:45:21;2.77;;;0.80;;
70505;SDS011;58032;49.820;6.274;2022-09-27T14:47:57;4.15;;;1.05;;
70505;SDS011;58032;49.820;6.274;2022-09-27T14:50:27;2.00;;;0.60;;
70505;SDS011;58032;49.820;6.274;2022-09-27T14:53:22;3.28;;;0.75;;
70505;SDS011;58032;49.820;6.274;2022-09-27T14:55:55;4.00;;;0.70;;
70505;SDS011;58032;49.820;6.274;2022-09-27T14:58:29;2.57;;;0.90;;
70505;SDS011;58032;49.820;6.274;2022-09-27T15:01:17;3.80;;;0.90;;
70505;SDS011;58032;49.820;6.274;2022-09-27T15:04:04;6.53;;;1.05;;
70505;SDS011;58032;49.820;6.274;2022-09-27T15:06:39;6.28;;;0.88;;
70505;SDS011;58032;49.820;6.274;2022-09-27T15:09:17;3.65;;;0.80;;
70505;SDS011;58032;49.820;6.274;2022-09-27T15:11:52;3.67;;;0.70;;
70505;SDS011;58032;49.820;6.274;2022-09-27T15:14:28;2.70;;;0.82;;
70505;SDS011;58032;49.820;6.274;2022-09-27T15:17:19;3.60;;;1.00;;
70505;SDS011;58032;49.820;6.274;2022-09-27T15:19:59;4.68;;;1.25;;
70505;SDS011;58032;49.820;6.274;2022-09-27T15:22:45;3.90;;;0.85;;
70505;SDS011;58032;49.820;6.274;2022-09-27T15:25:37;2.37;;;0.53;;
70505;SDS011;58032;49.820;6.274;2022-09-27T15:31:05;3.85;;;0.65;;
70505;SDS011;58032;49.820;6.274;2022-09-27T15:33:51;3.30;;;0.98;;
70505;SDS011;58032;49.820;6.274;2022-09-27T15:36:51;3.65;;;0.63;;
70505;SDS011;58032;49.820;6.274;2022-09-27T15:39:38;3.17;;;0.60;;
70505;SDS011;58032;49.820;6.274;2022-09-27T15:44:46;2.22;;;0.70;;
70505;SDS011;58032;49.820;6.274;2022-09-27T15:47:57;2.63;;;0.50;;
70505;SDS011;58032;49.820;6.274;2022-09-27T15:52:42;2.17;;;0.40;;
70505;SDS011;58032;49.820;6.274;2022-09-27T15:55:20;2.13;;;0.40;;
70505;SDS011;58032;49.820;6.274;2022-09-27T15:57:54;3.03;;;0.50;;
70505;SDS011;58032;49.820;6.274;2022-09-27T16:00:29;2.50;;;0.50;;
70505;SDS011;58032;49.820;6.274;2022-09-27T16:02:59;2.75;;;0.60;;
70505;SDS011;58032;49.820;6.274;2022-09-27T16:05:29;2.00;;;0.33;;
70505;SDS011;58032;49.820;6.274;2022-09-27T16:08:11;3.55;;;0.50;;
70505;SDS011;58032;49.820;6.274;2022-09-27T16:10:53;2.13;;;0.43;;
70505;SDS011;58032;49.820;6.274;2022-09-27T16:13:34;2.55;;;0.35;;
70505;SDS011;58032;49.820;6.274;2022-09-27T16:16:19;2.63;;;0.40;;
70505;SDS011;58032;49.820;6.274;2022-09-27T16:18:52;1.97;;;0.30;;
70505;SDS011;58032;49.820;6.274;2022-09-27T16:21:28;2.05;;;0.50;;
70505;SDS011;58032;49.820;6.274;2022-09-27T16:24:04;3.45;;;0.40;;
70505;SDS011;58032;49.820;6.274;2022-09-27T16:26:31;3.58;;;0.40;;
70505;SDS011;58032;49.820;6.274;2022-09-27T16:29:00;2.20;;;0.30;;
70505;SDS011;58032;49.820;6.274;2022-09-27T16:31:33;1.60;;;0.40;;
70505;SDS011;58032;49.820;6.274;2022-09-27T16:34:12;6.80;;;0.52;;
70505;SDS011;58032;49.820;6.274;2022-09-27T16:36:39;3.50;;;0.40;;
70505;SDS011;58032;49.820;6.274;2022-09-27T16:39:06;10.90;;;0.60;;
70505;SDS011;58032;49.820;6.274;2022-09-27T16:41:35;1.80;;;0.30;;
70505;SDS011;58032;49.820;6.274;2022-09-27T16:44:12;2.13;;;0.27;;
70505;SDS011;58032;49.820;6.274;2022-09-27T16:46:39;4.60;;;0.50;;
70505;SDS011;58032;49.820;6.274;2022-09-27T16:49:07;4.55;;;0.57;;
70505;SDS011;58032;49.820;6.274;2022-09-27T16:51:57;2.63;;;0.50;;
70505;SDS011;58032;49.820;6.274;2022-09-27T16:54:34;4.30;;;0.70;;
70505;SDS011;58032;49.820;6.274;2022-09-27T16:57:01;3.13;;;1.23;;
70505;SDS011;58032;49.820;6.274;2022-09-27T16:59:33;2.90;;;0.82;;
70505;SDS011;58032;49.820;6.274;2022-09-27T17:02:11;3.78;;;0.50;;
70505;SDS011;58032;49.820;6.274;2022-09-27T17:04:42;3.10;;;0.40;;
70505;SDS011;58032;49.820;6.274;2022-09-27T17:07:14;4.70;;;0.60;;
70505;SDS011;58032;49.820;6.274;2022-09-27T17:09:41;3.70;;;0.53;;
70505;SDS011;58032;49.820;6.274;2022-09-27T17:12:08;2.55;;;0.63;;
70505;SDS011;58032;49.820;6.274;2022-09-27T17:14:37;3.38;;;0.50;;
70505;SDS011;58032;49.820;6.274;2022-09-27T17:17:10;2.10;;;0.35;;
70505;SDS011;58032;49.820;6.274;2022-09-27T17:19:36;1.90;;;0.50;;
70505;SDS011;58032;49.820;6.274;2022-09-27T17:22:05;3.57;;;0.50;;
70505;SDS011;58032;49.820;6.274;2022-09-27T17:24:35;3.30;;;0.50;;
70505;SDS011;58032;49.820;6.274;2022-09-27T17:27:13;5.45;;;0.63;;
70505;SDS011;58032;49.820;6.274;2022-09-27T17:29:50;3.05;;;0.40;;
70505;SDS011;58032;49.820;6.274;2022-09-27T17:32:33;2.65;;;0.60;;
70505;SDS011;58032;49.820;6.274;2022-09-27T17:35:05;2.93;;;0.80;;
70505;SDS011;58032;49.820;6.274;2022-09-27T17:37:47;3.35;;;0.85;;
70505;SDS011;58032;49.820;6.274;2022-09-27T17:40:14;1.70;;;0.35;;
70505;SDS011;58032;49.820;6.274;2022-09-27T17:42:45;2.70;;;0.45;;
70505;SDS011;58032;49.820;6.274;2022-09-27T17:45:24;2.67;;;0.40;;
70505;SDS011;58032;49.820;6.274;2022-09-27T17:47:50;2.53;;;0.60;;
70505;SDS011;58032;49.820;6.274;2022-09-27T17:50:38;3.10;;;0.50;;
70505;SDS011;58032;49.820;6.274;2022-09-27T17:53:05;2.22;;;0.47;;
70505;SDS011;58032;49.820;6.274;2022-09-27T17:55:32;1.75;;;0.35;;
70505;SDS011;58032;49.820;6.274;2022-09-27T17:57:59;2.08;;;0.38;;